TimePST,TemperatureF,Dew PointF,Humidity,Sea Level PressureIn,VisibilityMPH,Wind Direction,Wind SpeedMPH,Gust SpeedMPH,PrecipitationIn,Events,Conditions,WindDirDegrees,DateUTC
12:35 AM,32.0,28.4,87,30.13,4.0,Calm,Calm,-,0.01,Rain,Light Freezing Rain,0,2013-01-25 08:35:00
12:44 AM,33.8,28.4,81,30.13,5.0,Calm,Calm,-,0.01,Rain,Light Freezing Rain,0,2013-01-25 08:44:00
12:53 AM,33.1,28.9,85,30.18,4.0,Calm,Calm,-,0.01,Rain,Light Freezing Rain,0,2013-01-25 08:53:00
1:03 AM,33.8,28.4,81,30.13,4.0,Calm,Calm,-,0.00,,Overcast,0,2013-01-25 09:03:00
1:17 AM,32.0,28.4,87,30.12,5.0,ENE,4.6,-,0.00,,Overcast,60,2013-01-25 09:17:00
1:29 AM,32.0,28.4,87,30.12,4.0,Calm,Calm,-,0.00,,Overcast,0,2013-01-25 09:29:00
1:53 AM,33.1,30.0,89,30.16,3.0,Calm,Calm,-,0.00,Rain,Light Rain,0,2013-01-25 09:53:00
2:06 AM,33.8,30.2,87,30.11,2.5,Calm,Calm,-,0.00,Rain,Light Rain,0,2013-01-25 10:06:00
2:53 AM,34.0,30.9,89,30.14,2.5,Calm,Calm,-,0.01,Rain,Light Rain,0,2013-01-25 10:53:00
3:09 AM,33.8,30.2,87,30.09,1.8,Calm,Calm,-,0.01,Rain,Light Rain,0,2013-01-25 11:09:00
3:28 AM,33.8,30.2,87,30.09,2.0,Calm,Calm,-,0.02,Rain,Light Rain,0,2013-01-25 11:28:00
3:38 AM,33.8,30.2,87,30.09,1.8,Calm,Calm,-,0.02,Rain,Light Rain,0,2013-01-25 11:38:00
3:53 AM,33.1,30.0,89,30.13,1.5,SW,3.5,-,0.02,Rain,Light Rain,230,2013-01-25 11:53:00
4:36 AM,33.8,30.2,87,30.08,2.5,SW,3.5,-,0.02,,Overcast,230,2013-01-25 12:36:00
4:45 AM,33.8,30.2,87,30.08,3.0,Calm,Calm,-,0.02,,Overcast,0,2013-01-25 12:45:00
4:53 AM,33.1,30.0,89,30.13,3.0,Calm,Calm,-,0.02,Rain,Light Rain,0,2013-01-25 12:53:00
5:53 AM,33.1,30.0,89,30.13,7.0,Calm,Calm,-,0.00,,Overcast,0,2013-01-25 13:53:00
6:11 AM,33.8,28.4,81,30.08,7.0,Calm,Calm,-,N/A,,Overcast,0,2013-01-25 14:11:00
6:53 AM,33.1,28.9,85,30.12,6.0,Calm,Calm,-,N/A,,Overcast,0,2013-01-25 14:53:00
7:53 AM,33.1,30.0,89,30.12,4.0,Calm,Calm,-,N/A,,Overcast,0,2013-01-25 15:53:00
8:09 AM,33.8,30.2,87,30.07,4.0,Calm,Calm,-,N/A,,Overcast,0,2013-01-25 16:09:00
8:51 AM,33.8,30.2,87,30.07,4.0,Calm,Calm,-,N/A,,Overcast,0,2013-01-25 16:51:00
8:53 AM,34.0,30.0,85,30.12,3.0,Calm,Calm,-,N/A,,Overcast,0,2013-01-25 16:53:00
9:53 AM,35.1,30.9,85,30.12,4.0,Calm,Calm,-,N/A,,Overcast,0,2013-01-25 17:53:00
10:53 AM,35.1,30.9,85,30.10,5.0,Calm,Calm,-,N/A,,Overcast,0,2013-01-25 18:53:00
11:53 AM,37.9,33.1,83,30.07,5.0,NE,3.5,-,N/A,,Haze,40,2013-01-25 19:53:00
12:20 PM,39.2,35.6,87,30.02,7.0,Calm,Calm,-,N/A,,Overcast,0,2013-01-25 20:20:00
12:53 PM,39.0,35.1,86,30.04,4.0,ENE,3.5,-,N/A,,Overcast,70,2013-01-25 20:53:00
1:09 PM,39.2,35.6,87,30.00,6.0,Calm,Calm,-,N/A,,Overcast,0,2013-01-25 21:09:00
1:53 PM,41.0,37.0,86,30.02,8.0,Calm,Calm,-,N/A,,Overcast,0,2013-01-25 21:53:00
2:33 PM,41.0,35.6,81,29.99,2.5,West,5.8,-,0.00,Rain,Light Rain,280,2013-01-25 22:33:00
2:53 PM,39.9,37.0,89,30.01,2.0,West,3.5,-,0.00,Rain,Light Rain,270,2013-01-25 22:53:00
3:53 PM,39.9,37.0,89,30.01,2.0,Calm,Calm,-,0.01,,Overcast,0,2013-01-25 23:53:00
4:53 PM,37.9,36.0,93,30.00,3.0,Calm,Calm,-,0.02,Fog-Rain,Light Rain,0,2013-01-26 00:53:00
5:53 PM,36.0,33.1,89,29.99,3.0,Calm,Calm,-,0.11,Fog-Rain,Light Rain,0,2013-01-26 01:53:00
6:53 PM,37.0,34.0,89,29.98,2.0,Calm,Calm,-,0.09,Fog-Rain,Rain,0,2013-01-26 02:53:00
7:53 PM,37.0,34.0,89,29.97,0.5,Calm,Calm,-,0.04,Fog-Rain,Light Rain,0,2013-01-26 03:53:00
8:04 PM,37.4,33.8,87,29.93,1.0,Calm,Calm,-,0.00,,Overcast,0,2013-01-26 04:04:00
8:24 PM,35.6,33.8,93,29.93,0.5,Calm,Calm,-,0.01,Fog-Rain,Light Rain,0,2013-01-26 04:24:00
8:34 PM,35.6,33.8,93,29.93,0.5,Calm,Calm,-,0.02,Fog-Rain,Light Rain,0,2013-01-26 04:34:00
8:51 PM,35.6,33.8,93,29.93,0.5,Calm,Calm,-,0.03,Fog-Rain,Light Rain,0,2013-01-26 04:51:00
8:53 PM,36.0,34.0,93,29.97,0.5,Calm,Calm,-,0.03,Fog-Rain,Light Rain,0,2013-01-26 04:53:00
9:53 PM,36.0,33.1,89,29.96,0.5,Calm,Calm,-,0.00,Fog,Fog,0,2013-01-26 05:53:00
10:00 PM,35.6,33.8,93,29.92,0.5,Calm,Calm,-,N/A,Fog,Fog,0,2013-01-26 06:00:00
10:09 PM,35.6,33.8,93,29.91,0.5,Calm,Calm,-,N/A,Fog,Fog,0,2013-01-26 06:09:00
10:33 PM,35.6,33.8,93,29.92,0.8,Calm,Calm,-,0.01,Rain,Light Rain,0,2013-01-26 06:33:00
10:53 PM,37.0,34.0,89,29.95,1.2,Calm,Calm,-,0.01,,Overcast,0,2013-01-26 06:53:00
11:53 PM,37.0,35.1,93,29.94,1.5,Calm,Calm,-,N/A,,Overcast,0,2013-01-26 07:53:00